Time;durP1;ratioP1;P1;durP2;ratioP2;P2;SDS_P1;SDS_P2;PMS_P1;PMS_P2;Temp;Humidity;BMP_temperature;BMP_pressure;BME280_temperature;BME280_humidity;BME280_pressure;Samples;Min_cycle;Max_cycle;Signal;HPM_P1;HPM_P2
2023/12/05 00:01:19;;;;;;;17.80;10.60;;;;;;;-4.69;100.00;97692.27;110541;1240;59648;-69
2023/12/05 00:03:50;;;;;;;17.60;12.20;;;;;;;-4.71;100.00;97685.48;110363;1242;70860;-69
2023/12/05 00:06:21;;;;;;;21.20;12.00;;;;;;;-4.75;100.00;97677.86;110496;1239;68797;-69
2023/12/05 00:08:51;;;;;;;19.50;13.00;;;;;;;-4.79;100.00;97671.77;110355;1242;69901;-68
2023/12/05 00:11:22;;;;;;;21.20;14.90;;;;;;;-4.82;100.00;97674.00;110493;1239;59702;-69
2023/12/05 00:13:53;;;;;;;32.40;20.70;;;;;;;-4.85;100.00;97678.63;110480;1238;59671;-69
2023/12/05 00:16:27;;;;;;;25.70;15.30;;;;;;;-4.90;100.00;97678.83;110552;1239;71425;-68
2023/12/05 00:19:01;;;;;;;24.20;14.60;;;;;;;-4.94;100.00;97675.64;110464;1239;69158;-69
2023/12/05 00:21:33;;;;;;;19.60;12.90;;;;;;;-4.95;100.00;97668.66;110597;1244;69135;-68
2023/12/05 00:24:05;;;;;;;21.20;11.40;;;;;;;-4.94;100.00;97666.95;110412;1242;59741;-68
2023/12/05 00:26:37;;;;;;;20.00;12.80;;;;;;;-4.93;100.00;97665.93;110572;1239;59732;-68
2023/12/05 00:29:09;;;;;;;17.20;10.50;;;;;;;-4.91;100.00;97659.27;110573;1239;70609;-69
2023/12/05 00:31:46;;;;;;;20.30;13.10;;;;;;;-4.89;99.53;97652.81;110550;1239;68475;-69
2023/12/05 00:34:16;;;;;;;18.30;10.20;;;;;;;-4.85;98.75;97650.39;110432;1244;68296;-68
2023/12/05 00:36:49;;;;;;;21.40;13.30;;;;;;;-4.82;100.00;97650.90;110412;1242;59798;-68
2023/12/05 00:39:21;;;;;;;18.80;11.10;;;;;;;-4.83;100.00;97653.61;110491;1239;59731;-69
2023/12/05 00:41:54;;;;;;;22.00;12.80;;;;;;;-4.81;100.00;97649.85;110469;1244;71360;-69
2023/12/05 00:44:28;;;;;;;17.60;12.00;;;;;;;-4.80;100.00;97644.92;110459;1246;68488;-69
2023/12/05 00:47:03;;;;;;;17.80;11.20;;;;;;;-4.78;100.00;97635.21;110495;1237;69084;-69
2023/12/05 00:49:35;;;;;;;21.10;13.60;;;;;;;-4.76;100.00;97631.11;110468;1238;59744;-69
2023/12/05 00:52:06;;;;;;;19.40;13.00;;;;;;;-4.76;100.00;97628.05;110619;1240;59679;-68
2023/12/05 00:54:38;;;;;;;17.60;11.20;;;;;;;-4.76;100.00;97625.67;110569;1238;72363;-69
2023/12/05 00:57:12;;;;;;;21.90;14.60;;;;;;;-4.74;100.00;97619.71;110453;1239;69237;-68
2023/12/05 00:59:43;;;;;;;19.40;12.40;;;;;;;-4.73;100.00;97611.70;110440;1246;68758;-69
2023/12/05 01:02:17;;;;;;;18.70;12.80;;;;;;;-4.71;100.00;97603.01;110430;1245;59682;-69
2023/12/05 01:04:48;;;;;;;22.70;13.90;;;;;;;-4.71;100.00;97591.63;110465;1239;59689;-69
2023/12/05 01:07:20;;;;;;;19.10;12.10;;;;;;;-4.70;100.00;97582.77;110453;1237;71216;-69
2023/12/05 01:09:52;;;;;;;19.30;11.50;;;;;;;-4.70;100.00;97576.48;110544;1239;69435;-69
2023/12/05 01:12:22;;;;;;;14.00;9.50;;;;;;;-4.68;100.00;97574.05;110443;1239;69293;-69
2023/12/05 01:15:01;;;;;;;19.60;12.20;;;;;;;-4.66;100.00;97562.66;110556;1239;59675;-69
2023/12/05 01:17:32;;;;;;;17.30;10.90;;;;;;;-4.66;100.00;97544.96;110470;1239;59660;-69
2023/12/05 01:20:07;;;;;;;17.70;11.10;;;;;;;-4.67;99.95;97542.44;110535;1240;71832;-69
2023/12/05 01:22:43;;;;;;;15.60;9.40;;;;;;;-4.67;98.27;97540.05;110483;1239;69619;-68
2023/12/05 01:25:15;;;;;;;14.10;9.30;;;;;;;-4.67;97.84;97531.72;110520;1240;69099;-69
2023/12/05 01:27:45;;;;;;;16.30;9.80;;;;;;;-4.68;97.26;97517.25;110473;1239;59685;-69
2023/12/05 01:30:15;;;;;;;23.60;13.30;;;;;;;-4.69;97.20;97510.65;110559;1238;59737;-69
2023/12/05 01:32:47;;;;;;;20.00;13.20;;;;;;;-4.71;97.12;97509.30;110589;1239;70682;-69
2023/12/05 01:35:17;;;;;;;21.70;12.70;;;;;;;-4.74;98.13;97502.02;110577;1239;69043;-69
2023/12/05 01:37:48;;;;;;;20.10;12.40;;;;;;;-4.75;100.00;97493.53;110513;1240;69232;-68
2023/12/05 01:40:22;;;;;;;17.30;12.40;;;;;;;-4.76;99.42;97494.06;110574;1239;59734;-68
2023/12/05 01:42:53;;;;;;;20.30;11.50;;;;;;;-4.79;99.29;97491.72;110613;1240;59661;-69
2023/12/05 01:45:24;;;;;;;17.30;10.50;;;;;;;-4.82;99.95;97485.11;110554;1242;70635;-69
2023/12/05 01:47:57;;;;;;;14.60;10.00;;;;;;;-4.85;100.00;97481.58;110555;1240;69030;-69
2023/12/05 01:50:29;;;;;;;14.50;10.70;;;;;;;-4.88;100.00;97478.70;110499;1239;68404;-69
2023/12/05 01:53:04;;;;;;;16.60;10.10;;;;;;;-4.89;100.00;97476.17;109925;1239;792712;-69
2023/12/05 01:55:37;;;;;;;12.90;9.70;;;;;;;-4.91;100.00;97467.86;110521;1239;59778;-69
2023/12/05 01:58:12;;;;;;;16.00;8.80;;;;;;;-4.93;100.00;97459.55;110526;1240;70635;-69
2023/12/05 02:00:45;;;;;;;17.90;9.30;;;;;;;-4.97;100.00;97456.36;110596;1245;69229;-69
2023/12/05 02:03:15;;;;;;;13.50;9.10;;;;;;;-5.01;100.00;97454.54;110540;1240;69397;-69
2023/12/05 02:05:47;;;;;;;13.80;9.40;;;;;;;-5.02;100.00;97454.89;110592;1239;59736;-68
2023/12/05 02:08:25;;;;;;;18.80;12.30;;;;;;;-5.05;100.00;97450.50;110514;1245;59668;-69
2023/12/05 02:10:56;;;;;;;22.90;15.50;;;;;;;-5.14;100.00;97457.89;110594;1242;71437;-69
2023/12/05 02:13:27;;;;;;;32.00;18.80;;;;;;;-5.26;100.00;97460.73;110619;1239;69112;-68
2023/12/05 02:16:31;;;;;;;36.00;20.90;;;;;;;-5.36;100.00;97458.63;110567;1239;69814;-69
2023/12/05 02:19:40;;;;;;;33.90;20.60;;;;;;;-5.46;100.00;97461.94;110467;1245;59727;-70
2023/12/05 02:22:33;;;;;;;30.00;18.20;;;;;;;-5.52;100.00;97455.02;110593;1239;59670;-69
2023/12/05 02:25:25;;;;;;;26.00;14.60;;;;;;;-5.52;100.00;97456.21;110345;1241;71443;-69
2023/12/05 02:28:02;;;;;;;25.80;14.50;;;;;;;-5.49;100.00;97458.40;110532;1239;69107;-69
2023/12/05 02:30:32;;;;;;;28.70;16.80;;;;;;;-5.46;100.00;97458.20;110612;1244;69217;-69
2023/12/05 02:33:03;;;;;;;29.90;18.00;;;;;;;-5.43;100.00;97455.63;110592;1241;59740;-69
2023/12/05 02:35:34;;;;;;;27.60;18.30;;;;;;;-5.41;100.00;97456.63;110579;1246;59689;-69
2023/12/05 02:38:18;;;;;;;30.00;17.00;;;;;;;-5.40;100.00;97462.40;110647;1241;71596;-69
2023/12/05 02:41:02;;;;;;;26.10;16.60;;;;;;;-5.41;100.00;97468.00;110591;1240;69020;-69
2023/12/05 02:43:49;;;;;;;26.30;15.90;;;;;;;-5.41;100.00;97466.48;110487;1240;69199;-69
2023/12/05 02:46:22;;;;;;;40.50;23.10;;;;;;;-5.41;100.00;97465.28;110647;1241;59640;-69
2023/12/05 02:48:56;;;;;;;28.00;18.90;;;;;;;-5.39;100.00;97466.30;110520;1246;59683;-69
2023/12/05 02:51:29;;;;;;;26.90;17.70;;;;;;;-5.39;100.00;97471.55;110598;1239;70460;-69
2023/12/05 02:54:01;;;;;;;;;;;;;;;-5.35;100.00;97484.95;110494;1238;69275;-68
2023/12/05 02:56:36;;;;;;;22.00;13.10;;;;;;;-5.32;100.00;97480.49;110511;1239;69086;-68
2023/12/05 02:59:07;;;;;;;19.40;12.40;;;;;;;-5.30;100.00;97464.52;110489;1239;59618;-68
2023/12/05 03:01:39;;;;;;;20.20;13.40;;;;;;;-5.29;100.00;97464.34;110358;1242;59702;-68
2023/12/05 03:04:11;;;;;;;23.50;14.80;;;;;;;-5.29;100.00;97461.77;110576;1245;70447;-68
2023/12/05 03:06:42;;;;;;;21.70;14.20;;;;;;;-5.27;100.00;97463.81;110534;1239;68847;-68
2023/12/05 03:09:15;;;;;;;21.90;14.90;;;;;;;-5.26;100.00;97467.20;110300;1243;68246;-68
2023/12/05 03:11:47;;;;;;;19.80;14.30;;;;;;;-5.25;100.00;97469.40;110464;1239;59740;-68
2023/12/05 03:14:20;;;;;;;28.00;17.30;;;;;;;-5.23;100.00;97463.77;110456;1239;59674;-68
2023/12/05 03:16:54;;;;;;;19.10;11.70;;;;;;;-5.24;100.00;97458.15;110473;1237;70293;-67
2023/12/05 03:19:26;;;;;;;17.10;11.30;;;;;;;-5.23;100.00;97455.77;110552;1239;68305;-67
2023/12/05 03:21:58;;;;;;;14.40;11.60;;;;;;;-5.22;100.00;97461.56;110468;1239;68491;-68
2023/12/05 03:24:29;;;;;;;16.70;10.20;;;;;;;-5.23;100.00;97467.17;110476;1239;59707;-68
2023/12/05 03:27:02;;;;;;;20.80;12.60;;;;;;;-5.23;100.00;97466.98;110405;1242;59672;-68
2023/12/05 03:29:33;;;;;;;17.00;11.90;;;;;;;-5.23;100.00;97465.80;110561;1239;71761;-68
2023/12/05 03:32:07;;;;;;;17.10;12.30;;;;;;;-5.22;100.00;97464.63;110643;1237;68205;-69
2023/12/05 03:34:37;;;;;;;22.90;14.00;;;;;;;-5.22;100.00;97462.07;110490;1242;69253;-70
2023/12/05 03:37:07;;;;;;;23.60;15.70;;;;;;;-5.21;100.00;97450.50;110417;1243;59689;-67
2023/12/05 03:39:40;;;;;;;22.50;15.70;;;;;;;-5.18;100.00;97438.73;110424;1238;59713;-67
2023/12/05 03:42:10;;;;;;;25.50;17.00;;;;;;;-5.16;100.00;97422.75;110391;1242;70750;-68
2023/12/05 03:44:40;;;;;;;21.60;16.40;;;;;;;-5.14;100.00;97415.92;110358;1241;69095;-69
2023/12/05 03:47:11;;;;;;;24.60;15.30;;;;;;;-5.11;100.00;97420.32;110413;1242;68331;-69
2023/12/05 03:49:42;;;;;;;24.90;17.30;;;;;;;-5.10;100.00;97420.98;110407;1242;59779;-69
2023/12/05 03:52:13;;;;;;;28.20;17.50;;;;;;;-5.09;100.00;97422.51;110379;1241;59642;-69
2023/12/05 03:54:44;;;;;;;26.90;16.60;;;;;;;-5.09;100.00;97415.86;110405;1241;70645;-66
2023/12/05 03:57:15;;;;;;;28.70;18.10;;;;;;;-5.10;100.00;97404.50;110373;1243;69047;-67
2023/12/05 03:59:46;;;;;;;32.30;18.50;;;;;;;-5.11;100.00;97400.60;110415;1241;68923;-68
2023/12/05 04:02:17;;;;;;;23.00;17.70;;;;;;;-5.13;100.00;97412.69;110412;1241;59742;-69
2023/12/05 04:04:48;;;;;;;35.40;20.60;;;;;;;-5.12;100.00;97415.73;110431;1240;59678;-69
2023/12/05 04:07:18;;;;;;;33.00;19.00;;;;;;;-5.12;100.00;97410.29;110456;1238;71538;-69
2023/12/05 04:09:49;;;;;;;35.50;21.40;;;;;;;-5.09;100.00;97401.09;110383;1241;69293;-69
2023/12/05 04:12:22;;;;;;;37.10;21.60;;;;;;;-5.08;100.00;97398.36;110273;1243;69478;-69
2023/12/05 04:14:53;;;;;;;35.10;22.60;;;;;;;-5.07;100.00;97395.64;110488;1244;59723;-69
2023/12/05 04:17:23;;;;;;;31.50;17.50;;;;;;;-5.06;100.00;97402.92;110378;1240;59679;-68
2023/12/05 04:19:54;;;;;;;31.30;21.30;;;;;;;-5.07;100.00;97424.01;110381;1241;71233;-69
2023/12/05 04:22:27;;;;;;;30.90;18.40;;;;;;;-5.04;100.00;97448.27;110389;1242;68483;-68
2023/12/05 04:24:57;;;;;;;25.30;15.40;;;;;;;-5.02;100.00;97469.50;110464;1238;68450;-68
2023/12/05 04:27:28;;;;;;;24.70;15.30;;;;;;;-4.99;100.00;97475.43;110497;1242;59734;-69
2023/12/05 04:29:58;;;;;;;21.90;13.40;;;;;;;-4.96;100.00;97486.27;110517;1243;59675;-69
2023/12/05 04:32:29;;;;;;;22.10;14.20;;;;;;;-4.93;100.00;97499.16;110361;1238;71211;-68
2023/12/05 04:34:59;;;;;;;19.30;13.20;;;;;;;-4.90;100.00;97494.20;110364;1243;69086;-69
2023/12/05 04:37:29;;;;;;;22.00;13.70;;;;;;;-4.85;100.00;97476.81;110414;1241;69120;-69
2023/12/05 04:40:00;;;;;;;20.60;12.80;;;;;;;-4.80;100.00;97474.55;110411;1243;59734;-69
2023/12/05 04:42:30;;;;;;;20.70;12.90;;;;;;;-4.76;100.00;97479.61;110486;1239;59671;-69
2023/12/05 04:45:01;;;;;;;;;;;;;;;-4.71;100.00;97481.26;110527;1239;71300;-69
2023/12/05 04:47:31;;;;;;;17.90;11.70;;;;;;;-4.70;100.00;97480.05;110510;1239;69832;-69
2023/12/05 04:50:03;;;;;;;19.10;13.20;;;;;;;-4.70;100.00;97473.75;110532;1244;69118;-69
2023/12/05 04:52:33;;;;;;;19.40;12.90;;;;;;;-4.68;100.00;97469.80;110495;1239;59696;-70
2023/12/05 04:55:04;;;;;;;20.90;13.20;;;;;;;-4.68;100.00;97472.36;110684;1239;59704;-69
2023/12/05 04:57:33;;;;;;;22.60;14.50;;;;;;;-4.64;100.00;97458.37;110534;1239;70389;-69
2023/12/05 05:00:05;;;;;;;32.20;19.10;;;;;;;-4.62;100.00;97464.30;110700;1246;69229;-70
2023/12/05 05:02:35;;;;;;;25.10;17.20;;;;;;;-4.62;100.00;97455.47;110619;1238;68591;-69
2023/12/05 05:05:06;;;;;;;24.30;15.00;;;;;;;-4.59;100.00;97447.95;110566;1240;59683;-69
2023/12/05 05:07:37;;;;;;;28.60;19.20;;;;;;;-4.58;100.00;97444.86;110489;1239;59666;-69
2023/12/05 05:10:08;;;;;;;29.50;19.10;;;;;;;-4.57;100.00;97442.33;110451;1242;72188;-68
2023/12/05 05:12:38;;;;;;;30.80;21.80;;;;;;;-4.57;100.00;97434.16;110541;1239;68309;-68
2023/12/05 05:15:09;;;;;;;35.90;23.40;;;;;;;-4.59;100.00;97419.36;110613;1239;69350;-68
2023/12/05 05:17:40;;;;;;;53.60;29.80;;;;;;;-4.59;100.00;97417.00;110555;1238;59639;-68
2023/12/05 05:20:10;;;;;;;47.20;29.50;;;;;;;-4.59;100.00;97396.58;110556;1239;59625;-68
2023/12/05 05:22:40;;;;;;;;;;;;;;;-4.56;100.00;97410.32;110588;1239;71390;-68
2023/12/05 05:25:10;;;;;;;35.70;23.60;;;;;;;-4.55;100.00;97420.34;110633;1237;68533;-68
2023/12/05 05:27:40;;;;;;;43.90;27.20;;;;;;;-4.56;100.00;97433.80;110438;1239;69658;-68
2023/12/05 05:30:10;;;;;;;35.50;22.00;;;;;;;-4.57;100.00;97437.38;110540;1239;59758;-67
2023/12/05 05:32:41;;;;;;;24.80;15.50;;;;;;;-4.56;100.00;97415.77;110523;1239;59666;-68
2023/12/05 05:35:11;;;;;;;22.30;14.80;;;;;;;-4.55;100.00;97408.77;110491;1238;71209;-68
2023/12/05 05:37:41;;;;;;;19.00;13.00;;;;;;;-4.54;100.00;97423.56;110490;1240;69358;-68
2023/12/05 05:40:11;;;;;;;21.10;13.10;;;;;;;-4.52;100.00;97422.34;110470;1247;69285;-68
2023/12/05 05:42:40;;;;;;;;;;;;;;;-4.49;100.00;97425.36;110434;1241;59709;-68
2023/12/05 05:45:11;;;;;;;16.20;10.10;;;;;;;-4.45;100.00;97437.73;110499;1239;59623;-68
2023/12/05 05:47:42;;;;;;;24.80;14.70;;;;;;;-4.43;100.00;97434.30;110442;1243;71373;-68
2023/12/05 05:50:12;;;;;;;21.50;14.10;;;;;;;-4.41;100.00;97431.55;110475;1240;69264;-68
2023/12/05 05:52:46;;;;;;;24.50;14.40;;;;;;;-4.38;100.00;97439.86;110598;1237;69296;-68
2023/12/05 05:55:18;;;;;;;20.90;13.40;;;;;;;-4.36;100.00;97454.80;110519;1239;59722;-68
2023/12/05 05:57:47;;;;;;;19.60;13.50;;;;;;;-4.33;100.00;97453.05;110505;1239;59737;-68
2023/12/05 06:00:18;;;;;;;21.20;14.10;;;;;;;-4.31;100.00;97457.45;110471;1239;70500;-68
2023/12/05 06:02:47;;;;;;;21.50;13.00;;;;;;;-4.29;100.00;97451.31;110469;1245;69303;-68
2023/12/05 06:05:17;;;;;;;22.10;15.30;;;;;;;-4.27;100.00;97453.66;110452;1239;68496;-68
2023/12/05 06:07:47;;;;;;;25.30;15.10;;;;;;;-4.27;100.00;97454.85;110508;1239;59665;-68
2023/12/05 06:10:16;;;;;;;21.00;13.60;;;;;;;-4.27;100.00;97461.14;110547;1245;59683;-68
2023/12/05 06:12:46;;;;;;;21.20;12.70;;;;;;;-4.25;100.00;97457.89;110461;1240;71407;-68
2023/12/05 06:15:16;;;;;;;18.50;12.50;;;;;;;-4.22;100.00;97455.98;110353;1241;69870;-68
2023/12/05 06:17:46;;;;;;;21.00;13.20;;;;;;;-4.19;100.00;97457.80;110441;1238;68265;-68
2023/12/05 06:20:17;;;;;;;15.00;11.90;;;;;;;-4.14;100.00;97450.23;110612;1237;59696;-68
2023/12/05 06:22:46;;;;;;;;;;;;;;;-4.10;100.00;97448.83;110479;1239;59672;-69
2023/12/05 06:25:15;;;;;;;17.70;10.30;;;;;;;-4.04;100.00;97454.36;110497;1239;70406;-68
2023/12/05 06:27:46;;;;;;;16.00;10.60;;;;;;;-4.00;100.00;97449.37;110483;1238;69044;-69
2023/12/05 06:30:16;;;;;;;18.40;10.60;;;;;;;-3.95;100.00;97450.84;110470;1239;68300;-68
2023/12/05 06:32:55;;;;;;;19.20;12.80;;;;;;;-3.91;100.00;97445.82;110465;1239;59755;-69
2023/12/05 06:35:25;;;;;;;;;;;;;;;-3.86;100.00;97444.06;110383;1238;59689;-69
2023/12/05 06:37:56;;;;;;;15.50;10.20;;;;;;;-3.81;100.00;97448.42;110487;1239;71450;-68
2023/12/05 06:40:26;;;;;;;18.60;12.90;;;;;;;-3.76;100.00;97448.86;110502;1240;69218;-69
2023/12/05 06:42:56;;;;;;;19.60;12.00;;;;;;;-3.72;100.00;97444.87;110476;1245;69288;-69
2023/12/05 06:45:27;;;;;;;22.50;15.20;;;;;;;-3.69;100.00;97447.36;110464;1237;59702;-69
2023/12/05 06:47:56;;;;;;;20.60;13.10;;;;;;;-3.63;100.00;97439.42;110418;1239;59663;-69
2023/12/05 06:50:26;;;;;;;20.20;13.90;;;;;;;-3.58;100.00;97433.06;110442;1245;71879;-69
2023/12/05 06:52:57;;;;;;;21.90;14.70;;;;;;;-3.52;100.00;97429.73;110424;1239;69794;-68
2023/12/05 06:55:27;;;;;;;20.20;13.00;;;;;;;-3.46;100.00;97429.61;110377;1242;69279;-68
2023/12/05 06:57:56;;;;;;;18.00;12.40;;;;;;;-3.40;100.00;97433.61;110447;1239;60097;-69
2023/12/05 07:00:25;;;;;;;21.80;13.30;;;;;;;-3.35;100.00;97433.53;110672;1239;59637;-68
2023/12/05 07:02:55;;;;;;;22.70;13.80;;;;;;;-3.29;100.00;97433.41;110491;1239;71446;-68
2023/12/05 07:05:24;;;;;;;22.20;14.00;;;;;;;-3.22;100.00;97437.72;110517;1241;69237;-68
2023/12/05 07:07:54;;;;;;;16.20;11.60;;;;;;;-3.17;100.00;97438.48;110498;1244;69323;-68
2023/12/05 07:10:25;;;;;;;19.70;12.90;;;;;;;-3.13;100.00;97437.39;110542;1239;60081;-68
2023/12/05 07:12:55;;;;;;;20.00;12.50;;;;;;;-3.04;100.00;97433.65;110593;1238;59710;-68
2023/12/05 07:15:25;;;;;;;18.40;13.10;;;;;;;-2.96;100.00;97427.88;110596;1239;71401;-68
2023/12/05 07:17:54;;;;;;;19.00;11.50;;;;;;;-2.89;99.99;97424.66;110640;1240;68737;-69
2023/12/05 07:20:24;;;;;;;18.90;10.50;;;;;;;-2.80;99.72;97422.63;110593;1241;69847;-68
2023/12/05 07:22:53;;;;;;;18.20;12.60;;;;;;;-2.71;99.57;97421.59;110447;1241;60049;-69
2023/12/05 07:25:23;;;;;;;17.00;11.60;;;;;;;-2.59;99.43;97421.18;111308;1238;59721;-69
2023/12/05 07:27:55;;;;;;;18.80;11.00;;;;;;;-2.42;98.27;97422.02;111424;1238;70622;-67
2023/12/05 07:30:25;;;;;;;17.00;11.70;;;;;;;-2.19;96.96;97430.57;111665;1238;68888;-67
2023/12/05 07:32:55;;;;;;;18.70;12.00;;;;;;;-1.86;97.28;97425.21;110701;1239;69313;-67
2023/12/05 07:35:25;;;;;;;21.00;14.40;;;;;;;-1.48;92.94;97415.44;110711;1239;59698;-69
2023/12/05 07:37:57;;;;;;;20.90;13.90;;;;;;;-1.10;93.78;97412.06;110742;1239;59672;-66
2023/12/05 07:40:26;;;;;;;19.80;12.50;;;;;;;-0.73;88.54;97408.15;110595;1239;71381;-67
2023/12/05 07:42:56;;;;;;;23.00;16.30;;;;;;;-0.42;85.58;97406.92;110586;1244;69827;-68
2023/12/05 07:45:25;;;;;;;20.10;14.80;;;;;;;-0.23;83.60;97409.98;110590;1239;69034;-68
2023/12/05 07:47:57;;;;;;;18.10;13.60;;;;;;;-0.18;82.41;97416.33;110476;1240;59773;-68
2023/12/05 07:50:27;;;;;;;19.10;13.30;;;;;;;0.03;82.49;97418.41;110454;1241;59686;-68
2023/12/05 07:52:58;;;;;;;17.60;12.50;;;;;;;0.18;81.06;97415.89;110396;1241;71256;-69
2023/12/05 07:55:28;;;;;;;16.60;12.20;;;;;;;0.35;84.66;97412.29;110445;1241;69264;-66
2023/12/05 07:57:58;;;;;;;16.80;12.00;;;;;;;0.36;80.21;97410.54;110421;1241;69961;-67
2023/12/05 08:00:28;;;;;;;16.20;9.90;;;;;;;0.24;79.83;97408.69;110459;1238;59690;-67
2023/12/05 08:02:57;;;;;;;14.10;8.90;;;;;;;0.19;80.67;97400.11;110348;1241;59666;-68
2023/12/05 08:05:27;;;;;;;11.50;8.40;;;;;;;0.13;82.37;97399.62;110596;1243;71680;-66
2023/12/05 08:07:57;;;;;;;11.10;7.90;;;;;;;0.00;82.18;97406.67;110541;1239;68859;-67
2023/12/05 08:10:26;;;;;;;14.50;9.20;;;;;;;0.01;80.02;97405.66;110583;1238;69126;-67
2023/12/05 08:12:56;;;;;;;12.20;8.30;;;;;;;0.03;80.10;97404.57;110711;1239;60052;-69
2023/12/05 08:15:25;;;;;;;12.90;8.30;;;;;;;0.09;78.82;97400.60;110553;1239;59680;-67
2023/12/05 08:17:55;;;;;;;12.00;8.40;;;;;;;0.12;78.27;97401.35;110545;1238;71037;-67
2023/12/05 08:20:25;;;;;;;17.90;11.80;;;;;;;0.15;76.93;97407.08;110539;1238;69221;-67
2023/12/05 08:22:55;;;;;;;21.10;13.30;;;;;;;0.18;77.72;97408.52;110586;1238;68513;-67
2023/12/05 08:25:24;;;;;;;24.20;16.10;;;;;;;0.21;84.33;97403.30;110577;1239;59669;-67
2023/12/05 08:27:53;;;;;;;22.30;15.80;;;;;;;0.08;85.66;97405.60;110537;1239;59711;-67
2023/12/05 08:30:23;;;;;;;20.80;14.70;;;;;;;-0.05;86.27;97402.89;110595;1244;71257;-68
2023/12/05 08:32:57;;;;;;;19.70;14.00;;;;;;;-0.05;86.14;97404.27;110627;1238;70304;-67
2023/12/05 08:35:28;;;;;;;22.50;15.40;;;;;;;0.03;86.62;97403.86;110465;1246;69843;-67
2023/12/05 08:37:57;;;;;;;25.00;17.60;;;;;;;0.06;86.74;97403.43;110576;1239;59794;-67
2023/12/05 08:40:27;;;;;;;25.20;16.80;;;;;;;-0.00;87.03;97407.55;110692;1239;59681;-67
2023/12/05 08:42:57;;;;;;;26.00;17.20;;;;;;;0.02;86.70;97403.55;110546;1238;70623;-67
2023/12/05 08:45:27;;;;;;;20.60;15.00;;;;;;;0.11;86.10;97396.59;110578;1239;69392;-67
2023/12/05 08:47:57;;;;;;;20.40;15.60;;;;;;;0.16;85.78;97396.77;110580;1239;68385;-66
2023/12/05 08:50:27;;;;;;;20.70;14.90;;;;;;;0.24;86.65;97391.20;110478;1239;59748;-66
2023/12/05 08:52:57;;;;;;;18.10;13.50;;;;;;;0.32;85.59;97385.96;110464;1239;59685;-68
2023/12/05 08:55:27;;;;;;;21.30;14.80;;;;;;;0.41;84.76;97385.66;110502;1246;71049;-68
2023/12/05 08:57:57;;;;;;;21.20;13.30;;;;;;;0.44;84.04;97382.14;110448;1237;69418;-68
2023/12/05 09:00:27;;;;;;;20.10;12.90;;;;;;;0.53;84.37;97382.73;110463;1239;69087;-68
2023/12/05 09:02:59;;;;;;;21.90;15.20;;;;;;;0.66;85.35;97382.78;110466;1238;59762;-68
2023/12/05 09:05:28;;;;;;;20.70;13.90;;;;;;;0.82;84.68;97383.81;110453;1239;59712;-68
2023/12/05 09:07:57;;;;;;;21.40;14.00;;;;;;;0.94;84.79;97380.98;110442;1239;72008;-66
2023/12/05 09:10:28;;;;;;;21.40;12.70;;;;;;;1.08;84.34;97380.50;110618;1246;69520;-69
2023/12/05 09:12:58;;;;;;;17.90;12.20;;;;;;;1.20;82.61;97374.23;110473;1241;69472;-67
2023/12/05 09:15:28;;;;;;;17.10;12.40;;;;;;;1.39;85.41;97370.27;110433;1239;59676;-67
2023/12/05 09:17:58;;;;;;;;;;;;;;;1.55;85.61;97362.98;110633;1239;59627;-67
2023/12/05 09:20:28;;;;;;;17.90;12.00;;;;;;;1.67;83.43;97359.80;110532;1239;70602;-67
2023/12/05 09:22:58;;;;;;;16.70;10.60;;;;;;;1.82;84.35;97357.13;110549;1239;68259;-67
2023/12/05 09:25:29;;;;;;;17.10;12.20;;;;;;;1.95;78.78;97352.67;110434;1245;68782;-66
2023/12/05 09:27:58;;;;;;;17.40;12.10;;;;;;;2.10;77.80;97352.27;110505;1239;59661;-67
2023/12/05 09:30:28;;;;;;;18.10;14.50;;;;;;;2.23;76.02;97351.23;110506;1237;59722;-67
2023/12/05 09:32:58;;;;;;;18.40;14.30;;;;;;;2.31;72.29;97344.33;110600;1239;70733;-67
2023/12/05 09:35:27;;;;;;;19.20;15.00;;;;;;;2.42;73.25;97343.38;110492;1245;68360;-67
2023/12/05 09:37:57;;;;;;;16.20;12.60;;;;;;;2.59;73.74;97340.29;110705;1239;69316;-69
2023/12/05 09:40:27;;;;;;;15.00;11.90;;;;;;;2.88;75.99;97339.39;110592;1239;59669;-67
2023/12/05 09:43:00;;;;;;;14.50;10.80;;;;;;;3.07;73.26;97342.52;110507;1239;60070;-67
2023/12/05 09:45:37;;;;;;;15.10;10.40;;;;;;;3.25;69.62;97338.98;110514;1239;69832;-67
2023/12/05 09:48:09;;;;;;;17.10;11.80;;;;;;;3.34;68.05;97334.80;110479;1247;69078;-67
2023/12/05 09:50:40;;;;;;;13.30;10.20;;;;;;;3.44;66.05;97333.98;110411;1241;69340;-67
2023/12/05 09:53:11;;;;;;;12.80;9.80;;;;;;;3.46;64.98;97333.55;110473;1239;59753;-67
2023/12/05 09:55:40;;;;;;;12.70;9.10;;;;;;;3.57;67.84;97327.89;110348;1241;59638;-69
2023/12/05 09:58:13;;;;;;;12.90;8.70;;;;;;;3.66;70.54;97325.05;110487;1238;71362;-67
2023/12/05 10:00:44;;;;;;;15.00;9.40;;;;;;;3.73;71.36;97313.88;110568;1240;69053;-67
2023/12/05 10:03:16;;;;;;;12.30;9.00;;;;;;;3.77;66.07;97307.98;110532;1239;68559;-67
2023/12/05 10:05:47;;;;;;;13.40;9.00;;;;;;;3.80;63.83;97306.95;110489;1238;59679;-67
2023/12/05 10:08:20;;;;;;;11.40;8.90;;;;;;;3.85;63.36;97303.98;110488;1239;59770;-67
2023/12/05 10:10:50;;;;;;;11.10;8.50;;;;;;;3.87;62.73;97302.84;110472;1239;71412;-67
2023/12/05 10:13:20;;;;;;;13.20;9.40;;;;;;;3.99;63.12;97304.87;110491;1246;69066;-67
2023/12/05 10:15:49;;;;;;;12.70;9.80;;;;;;;4.03;62.39;97300.85;110599;1239;69874;-67
2023/12/05 10:18:18;;;;;;;12.40;8.80;;;;;;;4.17;65.83;97296.95;110538;1238;59711;-67
2023/12/05 10:20:50;;;;;;;12.80;9.00;;;;;;;4.25;62.66;97295.49;110378;1241;59692;-67
2023/12/05 10:23:20;;;;;;;12.00;7.90;;;;;;;4.42;64.35;97295.36;110406;1239;72764;-68
2023/12/05 10:25:49;;;;;;;10.50;7.80;;;;;;;4.59;65.72;97296.72;110462;1239;68476;-67
2023/12/05 10:28:18;;;;;;;11.80;8.40;;;;;;;4.73;64.52;97293.23;110415;1238;68125;-67
2023/12/05 10:30:48;;;;;;;12.30;7.90;;;;;;;4.78;64.87;97288.38;110410;1241;59682;-68
2023/12/05 10:33:21;;;;;;;11.00;7.70;;;;;;;4.78;63.14;97291.30;110407;1241;59697;-67
2023/12/05 10:35:51;;;;;;;10.70;7.60;;;;;;;4.71;60.32;97294.75;110306;1238;71218;-67
2023/12/05 10:38:21;;;;;;;10.50;7.40;;;;;;;4.66;59.44;97296.23;110401;1238;68626;-67
2023/12/05 10:40:59;;;;;;;10.10;7.60;;;;;;;4.77;58.08;97298.23;110341;1243;69520;-67
2023/12/05 10:43:28;;;;;;;11.00;7.40;;;;;;;5.27;58.45;97302.52;110419;1239;59680;-67
2023/12/05 10:46:03;;;;;;;10.70;7.50;;;;;;;5.58;57.17;97303.60;110500;1239;59692;-67
2023/12/05 10:48:33;;;;;;;10.90;7.60;;;;;;;5.67;54.81;97305.73;110261;1242;71400;-67
2023/12/05 10:51:03;;;;;;;9.20;6.90;;;;;;;5.75;54.32;97306.49;110282;1238;68368;-67
2023/12/05 10:53:36;;;;;;;11.20;6.70;;;;;;;6.24;56.96;97302.73;110528;1241;67609;-67
2023/12/05 10:56:12;;;;;;;8.60;5.80;;;;;;;6.72;57.56;97298.20;110462;1239;59688;-67
2023/12/05 10:58:42;;;;;;;10.30;7.10;;;;;;;6.89;54.94;97294.78;110603;1238;59700;-67
2023/12/05 11:01:13;;;;;;;8.40;6.50;;;;;;;7.31;53.11;97290.32;110381;1241;70613;-67
2023/12/05 11:03:44;;;;;;;8.30;6.50;;;;;;;8.16;51.40;97288.61;110293;1242;69138;-67
2023/12/05 11:06:14;;;;;;;9.60;6.50;;;;;;;8.81;48.74;97285.02;110429;1240;69432;-68
2023/12/05 11:08:44;;;;;;;7.70;6.10;;;;;;;9.48;47.74;97285.25;110372;1241;59711;-68
2023/12/05 11:11:15;;;;;;;8.40;6.50;;;;;;;10.08;45.99;97280.44;110396;1238;59735;-68
2023/12/05 11:13:47;;;;;;;8.30;5.90;;;;;;;10.53;46.40;97280.13;110370;1238;71845;-67
2023/12/05 11:16:30;;;;;;;8.00;6.30;;;;;;;11.16;45.08;97277.80;110403;1241;69212;-66
2023/12/05 11:19:22;;;;;;;8.70;6.80;;;;;;;11.78;43.41;97270.98;110417;1244;68610;-68
2023/12/05 11:22:12;;;;;;;8.30;6.90;;;;;;;11.85;41.04;97272.35;110538;1240;59705;-67
2023/12/05 11:25:00;;;;;;;7.10;5.90;;;;;;;11.65;41.67;97270.13;110476;1238;59699;-67
2023/12/05 11:27:54;;;;;;;8.20;6.80;;;;;;;11.62;39.28;97268.23;110374;1241;71314;-69
2023/12/05 11:30:45;;;;;;;8.40;6.10;;;;;;;11.49;38.74;97262.49;110352;1241;68767;-68
2023/12/05 11:33:17;;;;;;;;;;;;;;;12.06;39.28;97261.95;110362;1240;69727;-68